createdAt,value
2018-11-06T00:00:53.462Z,24.65
2018-11-06T00:03:27.319Z,25.43
2018-11-06T00:05:56.285Z,22.90
2018-11-06T00:08:25.181Z,25.48
2018-11-06T00:10:54.164Z,24.67
2018-11-06T00:13:23.128Z,25.90
2018-11-06T00:15:52.157Z,22.48
2018-11-06T00:18:21.501Z,23.65
2018-11-06T00:20:50.674Z,26.93
2018-11-06T00:23:20.120Z,24.75
2018-11-06T00:25:49.096Z,25.35
2018-11-06T00:28:18.141Z,24.50
2018-11-06T00:30:47.818Z,26.68
2018-11-06T00:33:16.737Z,24.07
2018-11-06T00:35:45.717Z,24.07
2018-11-06T00:38:14.782Z,22.73
2018-11-06T00:40:43.767Z,21.68
2018-11-06T00:43:12.668Z,21.33
2018-11-06T00:45:41.700Z,25.23
2018-11-06T00:48:10.912Z,23.80
2018-11-06T00:50:40.749Z,24.07
2018-11-06T00:53:09.670Z,24.27
2018-11-06T00:55:38.630Z,25.62
2018-11-06T00:58:07.655Z,26.42
2018-11-06T01:00:36.605Z,22.50
2018-11-06T01:03:06.119Z,21.50
2018-11-06T01:05:35.181Z,24.05
2018-11-06T01:08:04.103Z,23.77
2018-11-06T01:10:33.290Z,22.75
2018-11-06T01:13:02.942Z,25.65
2018-11-06T01:15:31.997Z,26.70
2018-11-06T01:18:02.063Z,25.27
2018-11-06T01:20:31.507Z,22.48
2018-11-06T01:23:01.110Z,22.32
2018-11-06T01:25:30.098Z,20.23
2018-11-06T01:27:58.984Z,21.42
2018-11-06T01:30:28.405Z,23.30
2018-11-06T01:32:57.517Z,23.10
2018-11-06T01:35:26.761Z,24.50
2018-11-06T01:37:55.657Z,23.57
2018-11-06T01:40:24.956Z,24.18
2018-11-06T01:42:53.924Z,23.30
2018-11-06T01:45:22.918Z,25.70
2018-11-06T01:47:52.426Z,24.85
2018-11-06T01:50:21.429Z,25.60
2018-11-06T01:52:50.408Z,24.35
2018-11-06T01:55:19.475Z,24.65
2018-11-06T01:57:49.098Z,23.27
2018-11-06T02:00:18.993Z,22.90
2018-11-06T02:02:48.104Z,24.60
2018-11-06T02:05:17.986Z,24.18
2018-11-06T02:07:48.151Z,24.47
2018-11-06T02:10:17.920Z,25.32
2018-11-06T02:12:48.245Z,24.35
2018-11-06T02:15:17.821Z,25.37
2018-11-06T02:17:46.885Z,27.37
2018-11-06T02:20:16.659Z,24.07
2018-11-06T02:22:46.066Z,24.50
2018-11-06T02:25:15.227Z,24.70
2018-11-06T02:27:44.293Z,25.25
2018-11-06T02:30:15.351Z,26.05
2018-11-06T02:32:44.954Z,24.43
2018-11-06T02:35:14.015Z,24.65
2018-11-06T02:37:43.081Z,25.05
2018-11-06T02:40:14.029Z,25.40
2018-11-06T02:42:43.382Z,24.72
2018-11-06T02:45:14.411Z,23.98
2018-11-06T02:47:43.929Z,24.02
2018-11-06T02:50:13.975Z,23.32
2018-11-06T02:52:44.198Z,25.77
2018-11-06T02:55:13.443Z,27.62
2018-11-06T02:57:42.895Z,24.75
2018-11-06T03:00:14.875Z,24.12
2018-11-06T03:02:45.366Z,26.52
2018-11-06T03:05:15.392Z,24.23
2018-11-06T03:07:44.739Z,28.67
2018-11-06T03:10:14.912Z,25.62
2018-11-06T03:12:44.443Z,26.20
2018-11-06T03:15:14.349Z,25.92
2018-11-06T03:17:43.532Z,26.75
2018-11-06T03:20:13.547Z,26.95
2018-11-06T03:22:43.112Z,32.53
2018-11-06T03:25:13.073Z,29.25
2018-11-06T03:27:42.112Z,31.33
2018-11-06T03:30:13.828Z,28.95
2018-11-06T03:32:42.732Z,27.35
2018-11-06T03:35:12.989Z,28.10
2018-11-06T03:37:42.024Z,30.70
2018-11-06T03:40:12.432Z,29.87
2018-11-06T03:42:42.541Z,27.22
2018-11-06T03:45:18.112Z,26.35
2018-11-06T03:47:47.542Z,30.08
2018-11-06T03:50:16.825Z,28.70
2018-11-06T03:52:46.241Z,27.00
2018-11-06T03:55:15.240Z,28.17
2018-11-06T03:57:45.621Z,27.50
2018-11-06T04:00:15.761Z,26.97
2018-11-06T04:02:45.162Z,28.32
2018-11-06T04:05:14.592Z,26.62
2018-11-06T04:07:43.493Z,33.75
2018-11-06T04:10:13.707Z,31.85
2018-11-06T04:12:43.553Z,37.25
2018-11-06T04:15:13.964Z,43.52
2018-11-06T04:17:43.814Z,53.40
2018-11-06T04:20:13.420Z,50.63
2018-11-06T04:22:42.922Z,57.90
2018-11-06T04:25:12.068Z,51.70
2018-11-06T04:27:42.156Z,48.40
2018-11-06T04:30:12.987Z,40.10
2018-11-06T04:32:42.818Z,39.63
2018-11-06T04:35:12.811Z,36.42
2018-11-06T04:37:42.498Z,38.23
2018-11-06T04:40:14.608Z,34.67
2018-11-06T04:42:43.834Z,32.95
2018-11-06T04:45:13.634Z,37.30
2018-11-06T04:47:42.967Z,31.07
2018-11-06T04:50:12.302Z,38.67
2018-11-06T04:52:42.081Z,37.53
2018-11-06T04:55:12.198Z,33.15
2018-11-06T04:57:41.118Z,38.65
2018-11-06T05:00:12.500Z,38.95
2018-11-06T05:02:41.928Z,29.80
2018-11-06T05:05:11.773Z,29.42
2018-11-06T05:07:41.036Z,33.63
2018-11-06T05:10:12.826Z,34.73
2018-11-06T05:12:41.785Z,31.70
2018-11-06T05:15:12.634Z,36.50
2018-11-06T05:17:42.017Z,31.42
2018-11-06T05:20:14.758Z,36.05
2018-11-06T05:22:44.830Z,35.95
2018-11-06T05:25:14.297Z,39.23
2018-11-06T05:27:43.762Z,47.60
2018-11-06T05:30:13.675Z,51.02
2018-11-06T05:32:43.984Z,40.85
2018-11-06T05:35:13.509Z,40.60
2018-11-06T05:37:42.827Z,37.15
2018-11-06T05:40:22.666Z,36.60
2018-11-06T05:42:51.923Z,39.50
2018-11-06T05:45:21.148Z,37.75
2018-11-06T05:47:50.126Z,34.25
2018-11-06T05:50:19.469Z,36.30
2018-11-06T05:52:48.674Z,36.90
2018-11-06T05:55:18.063Z,34.98
2018-11-06T05:57:47.290Z,34.88
2018-11-06T06:00:16.684Z,34.63
2018-11-06T06:02:45.597Z,29.90
2018-11-06T06:05:14.920Z,31.90
2018-11-06T06:07:44.125Z,36.50
2018-11-06T06:10:13.716Z,38.40
2018-11-06T06:12:42.916Z,46.30
2018-11-06T06:15:11.891Z,50.48
2018-11-06T06:17:42.095Z,54.90
2018-11-06T06:20:11.034Z,52.80
2018-11-06T06:22:40.092Z,46.88
2018-11-06T06:25:09.381Z,40.05
2018-11-06T06:27:38.596Z,44.58
2018-11-06T06:30:10.005Z,42.08
2018-11-06T06:32:39.096Z,49.67
2018-11-06T06:35:08.343Z,43.83
2018-11-06T06:37:37.398Z,48.08
2018-11-06T06:40:08.125Z,45.08
2018-11-06T06:42:36.981Z,40.65
2018-11-06T06:45:07.791Z,39.50
2018-11-06T06:47:36.865Z,33.28
2018-11-06T06:50:07.914Z,40.85
2018-11-06T06:52:37.500Z,42.23
2018-11-06T06:55:08.105Z,40.00
2018-11-06T06:57:38.543Z,45.65
2018-11-06T07:00:11.669Z,44.40
2018-11-06T07:02:41.640Z,40.75
2018-11-06T07:05:15.170Z,42.00
2018-11-06T07:07:45.007Z,35.58
2018-11-06T07:10:15.734Z,30.43
2018-11-06T07:12:46.102Z,32.35
2018-11-06T07:15:16.522Z,31.73
2018-11-06T07:17:46.596Z,28.20
2018-11-06T07:20:17.313Z,31.97
2018-11-06T07:22:46.382Z,32.85
2018-11-06T07:25:15.657Z,28.47
2018-11-06T07:27:45.665Z,26.68
2018-11-06T07:30:16.717Z,33.42
2018-11-06T07:32:46.338Z,28.32
2018-11-06T07:35:16.193Z,27.60
2018-11-06T07:37:46.051Z,27.30
2018-11-06T07:40:16.512Z,25.50
2018-11-06T07:42:46.298Z,26.62
2018-11-06T07:45:18.514Z,28.40
2018-11-06T07:47:47.575Z,33.83
2018-11-06T07:50:16.818Z,34.50
2018-11-06T07:52:46.293Z,30.80
2018-11-06T07:55:16.973Z,25.87
2018-11-06T07:57:46.123Z,30.60
2018-11-06T08:00:17.418Z,35.53
2018-11-06T08:02:47.393Z,30.37
2018-11-06T08:05:16.963Z,33.07
2018-11-06T08:07:46.794Z,33.73
2018-11-06T08:10:15.947Z,33.00
2018-11-06T08:12:47.108Z,36.23
2018-11-06T08:15:16.502Z,34.70
2018-11-06T08:17:45.796Z,38.87
2018-11-06T08:20:15.118Z,37.57
2018-11-06T08:22:44.348Z,40.30
2018-11-06T08:25:14.509Z,38.02
2018-11-06T08:27:44.695Z,44.48
2018-11-06T08:30:14.206Z,39.65
2018-11-06T08:32:43.753Z,44.37
2018-11-06T08:35:15.566Z,42.45
2018-11-06T08:37:44.758Z,39.67
2018-11-06T08:40:15.133Z,38.42
2018-11-06T08:42:44.199Z,32.70
2018-11-06T08:45:14.220Z,36.80
2018-11-06T08:47:44.159Z,39.78
2018-11-06T08:50:15.594Z,41.83
2018-11-06T08:52:44.524Z,37.20
2018-11-06T08:55:14.570Z,40.58
2018-11-06T08:57:44.377Z,36.17
2018-11-06T09:00:15.507Z,36.30
2018-11-06T09:02:45.767Z,37.93
2018-11-06T09:05:15.610Z,33.03
2018-11-06T09:07:44.686Z,33.77
2018-11-06T09:10:14.520Z,39.47
2018-11-06T09:12:43.819Z,38.33
2018-11-06T09:15:14.963Z,35.40
2018-11-06T09:17:44.761Z,35.57
2018-11-06T09:20:14.951Z,38.37
2018-11-06T09:22:44.045Z,36.80
2018-11-06T09:25:14.417Z,39.40
2018-11-06T09:27:44.016Z,32.43
2018-11-06T09:30:15.790Z,38.35
2018-11-06T09:32:44.844Z,34.50
2018-11-06T09:35:14.442Z,31.07
2018-11-06T09:37:44.003Z,32.00
2018-11-06T09:40:14.660Z,30.80
2018-11-06T09:42:43.889Z,31.20
2018-11-06T09:45:13.557Z,30.03
2018-11-06T09:47:42.532Z,29.70
2018-11-06T09:50:13.979Z,31.93
2018-11-06T09:52:43.546Z,29.73
2018-11-06T09:55:12.709Z,27.67
2018-11-06T09:57:41.711Z,26.53
2018-11-06T10:00:12.813Z,25.73
2018-11-06T10:02:41.925Z,30.23
2018-11-06T10:05:12.160Z,27.07
2018-11-06T10:07:41.223Z,26.10
2018-11-06T10:10:13.313Z,26.03
2018-11-06T10:12:42.795Z,29.93
2018-11-06T10:15:14.045Z,29.87
2018-11-06T10:17:44.346Z,30.37
2018-11-06T10:20:14.557Z,23.50
2018-11-06T10:22:43.575Z,24.30
2018-11-06T10:25:12.554Z,27.57
2018-11-06T10:27:41.881Z,30.17
2018-11-06T10:30:15.206Z,26.03
2018-11-06T10:32:44.266Z,27.47
2018-11-06T10:35:13.232Z,23.17
2018-11-06T10:37:42.125Z,28.10
2018-11-06T10:40:14.731Z,24.87
2018-11-06T10:42:44.351Z,22.90
2018-11-06T10:45:13.501Z,21.87
2018-11-06T10:47:42.700Z,24.63
2018-11-06T10:50:12.807Z,25.90
2018-11-06T10:52:42.159Z,20.87
2018-11-06T10:55:11.482Z,22.87
2018-11-06T10:57:41.136Z,22.53
2018-11-06T11:00:16.378Z,23.80
2018-11-06T11:02:50.519Z,25.33
2018-11-06T11:05:20.150Z,27.27
2018-11-06T11:07:49.438Z,24.17
2018-11-06T11:10:18.425Z,21.33
2018-11-06T11:12:47.429Z,18.47
2018-11-06T11:15:16.418Z,23.23
2018-11-06T11:17:45.429Z,22.43
2018-11-06T11:20:20.889Z,23.50
2018-11-06T11:22:49.993Z,20.87
2018-11-06T11:25:19.082Z,18.80
2018-11-06T11:27:48.018Z,20.53
2018-11-06T11:30:17.447Z,19.53
2018-11-06T11:32:47.659Z,20.00
2018-11-06T11:35:16.722Z,17.23
2018-11-06T11:37:45.647Z,17.83
2018-11-06T11:40:15.798Z,18.70
2018-11-06T11:42:44.965Z,9.37
2018-11-06T11:45:14.777Z,7.43
2018-11-06T11:47:43.768Z,10.60
2018-11-06T11:50:14.233Z,6.10
2018-11-06T11:52:43.332Z,6.00
2018-11-06T11:55:12.574Z,6.17
2018-11-06T11:57:41.658Z,5.60
2018-11-06T12:00:13.484Z,5.37
2018-11-06T12:02:42.542Z,5.93
2018-11-06T12:05:12.041Z,6.43
2018-11-06T12:07:41.131Z,5.80
2018-11-06T12:10:11.369Z,6.00
2018-11-06T12:12:40.779Z,5.60
2018-11-06T12:15:12.418Z,5.63
2018-11-06T12:17:42.009Z,5.57
2018-11-06T12:20:11.608Z,5.07
2018-11-06T12:22:41.103Z,6.77
2018-11-06T12:25:10.679Z,7.70
2018-11-06T12:27:39.713Z,7.67
2018-11-06T12:30:12.894Z,6.57
2018-11-06T12:32:42.148Z,7.97
2018-11-06T12:35:12.195Z,7.33
2018-11-06T12:37:41.448Z,8.87
2018-11-06T12:40:11.865Z,9.23
2018-11-06T12:42:41.486Z,6.70
2018-11-06T12:45:12.106Z,7.13
2018-11-06T12:47:43.117Z,7.77
2018-11-06T12:50:12.391Z,8.07
2018-11-06T12:52:41.455Z,7.97
2018-11-06T12:55:12.167Z,7.00
2018-11-06T12:57:41.291Z,6.20
2018-11-06T13:00:14.237Z,5.63
2018-11-06T13:02:43.450Z,6.57
2018-11-06T13:05:12.375Z,5.77
2018-11-06T13:07:42.229Z,6.60
2018-11-06T13:10:11.584Z,6.70
2018-11-06T13:12:41.082Z,6.60
2018-11-06T13:15:10.130Z,6.03
2018-11-06T13:17:39.385Z,6.90
2018-11-06T13:20:10.774Z,8.87
2018-11-06T13:22:41.053Z,10.93
2018-11-06T13:25:10.195Z,11.03
2018-11-06T13:27:40.138Z,10.57
2018-11-06T13:30:12.821Z,10.57
2018-11-06T13:32:42.637Z,11.53
2018-11-06T13:35:12.084Z,11.67
2018-11-06T13:37:41.332Z,11.33
2018-11-06T13:40:13.462Z,11.03
2018-11-06T13:42:49.472Z,11.70
2018-11-06T13:45:23.827Z,12.37
2018-11-06T13:47:52.739Z,11.40
2018-11-06T13:50:21.818Z,12.27
2018-11-06T13:52:50.823Z,11.27
2018-11-06T13:55:19.888Z,12.07
2018-11-06T13:57:48.846Z,11.70
2018-11-06T14:00:20.959Z,11.50
2018-11-06T14:02:50.278Z,11.50
2018-11-06T14:05:19.569Z,11.57
2018-11-06T14:07:48.558Z,10.67
2018-11-06T14:10:17.609Z,11.70
2018-11-06T14:12:46.753Z,11.43
2018-11-06T14:15:15.827Z,11.77
2018-11-06T14:17:44.918Z,12.43
2018-11-06T14:20:15.794Z,12.00
2018-11-06T14:22:45.283Z,10.83
2018-11-06T14:25:14.204Z,11.30
2018-11-06T14:27:43.406Z,11.70
2018-11-06T14:30:16.703Z,11.07
2018-11-06T14:32:46.405Z,11.10
2018-11-06T14:35:16.330Z,10.63
2018-11-06T14:37:45.924Z,10.83
2018-11-06T14:40:15.619Z,12.50
2018-11-06T14:42:45.310Z,12.50
2018-11-06T14:45:15.508Z,11.13
2018-11-06T14:47:44.649Z,11.77
2018-11-06T14:50:13.849Z,10.20
2018-11-06T14:52:43.107Z,11.83
2018-11-06T14:55:13.783Z,11.67
2018-11-06T14:57:42.734Z,11.17
2018-11-06T15:00:15.429Z,11.40
2018-11-06T15:02:46.270Z,11.10
2018-11-06T15:05:15.818Z,12.43
2018-11-06T15:07:45.385Z,12.97
2018-11-06T15:10:14.258Z,11.97
2018-11-06T15:12:43.555Z,10.60
2018-11-06T15:15:13.289Z,10.63
2018-11-06T15:17:43.554Z,11.07
2018-11-06T15:20:15.421Z,10.53
2018-11-06T15:22:45.016Z,10.40
2018-11-06T15:25:14.584Z,10.33
2018-11-06T15:27:43.606Z,11.43
2018-11-06T15:30:14.205Z,10.73
2018-11-06T15:32:43.529Z,10.50
2018-11-06T15:35:13.805Z,11.47
2018-11-06T15:37:42.893Z,10.73
2018-11-06T15:40:14.135Z,10.20
2018-11-06T15:42:43.266Z,11.50
2018-11-06T15:45:14.606Z,11.03
2018-11-06T15:47:44.601Z,42.97
2018-11-06T15:50:14.877Z,11.20
2018-11-06T15:52:44.674Z,11.53
2018-11-06T15:55:14.825Z,11.57
2018-11-06T15:57:43.964Z,11.90
2018-11-06T16:00:15.995Z,11.43
2018-11-06T16:02:45.385Z,11.90
2018-11-06T16:05:14.433Z,12.07
2018-11-06T16:07:43.714Z,12.13
2018-11-06T16:10:15.195Z,11.43
2018-11-06T16:12:44.994Z,11.27
2018-11-06T16:15:14.126Z,11.10
2018-11-06T16:17:43.054Z,11.67
2018-11-06T16:20:13.840Z,11.90
2018-11-06T16:22:42.987Z,10.97
2018-11-06T16:25:13.429Z,11.83
2018-11-06T16:27:42.995Z,11.37
2018-11-06T16:30:14.686Z,11.00
2018-11-06T16:32:43.857Z,11.93
2018-11-06T16:35:15.249Z,10.27
2018-11-06T16:37:44.607Z,12.23
2018-11-06T16:40:14.197Z,12.60
2018-11-06T16:42:44.134Z,12.03
2018-11-06T16:45:15.249Z,12.40
2018-11-06T16:47:45.220Z,11.67
2018-11-06T16:50:15.389Z,11.70
2018-11-06T16:52:44.401Z,13.00
2018-11-06T16:55:13.761Z,12.23
2018-11-06T16:57:43.873Z,12.10
2018-11-06T17:00:14.878Z,16.87
2018-11-06T17:02:44.181Z,18.00
2018-11-06T17:05:14.294Z,20.47
2018-11-06T17:07:43.710Z,21.50
2018-11-06T17:10:13.670Z,20.43
2018-11-06T17:12:42.574Z,19.47
2018-11-06T17:15:16.704Z,20.37
2018-11-06T17:17:46.390Z,20.13
2018-11-06T17:20:15.819Z,20.73
2018-11-06T17:22:44.779Z,19.13
2018-11-06T17:25:14.969Z,19.77
2018-11-06T17:27:43.901Z,19.70
2018-11-06T17:30:14.731Z,21.17
2018-11-06T17:32:44.043Z,20.93
2018-11-06T17:35:14.470Z,18.53
2018-11-06T17:37:43.529Z,19.80
2018-11-06T17:40:15.157Z,19.77
2018-11-06T17:42:44.535Z,18.83
2018-11-06T17:45:21.575Z,17.23
2018-11-06T17:47:57.299Z,19.63
2018-11-06T17:50:26.286Z,19.53
2018-11-06T17:52:55.290Z,20.03
2018-11-06T17:55:24.254Z,20.47
2018-11-06T17:57:53.312Z,18.63
2018-11-06T18:00:23.177Z,20.57
2018-11-06T18:02:52.177Z,21.73
2018-11-06T18:05:23.067Z,21.87
2018-11-06T18:07:52.005Z,21.03
2018-11-06T18:10:21.513Z,21.43
2018-11-06T18:12:50.509Z,22.07
2018-11-06T18:15:19.625Z,22.43
2018-11-06T18:17:48.708Z,21.27
2018-11-06T18:20:33.933Z,20.93
2018-11-06T18:23:02.944Z,19.87
2018-11-06T18:25:31.983Z,19.77
2018-11-06T18:28:00.874Z,18.80
2018-11-06T18:30:29.938Z,19.63
2018-11-06T18:32:59.034Z,18.77
2018-11-06T18:35:27.940Z,20.23
2018-11-06T18:37:56.915Z,19.30
2018-11-06T18:40:25.960Z,19.20
2018-11-06T18:42:54.938Z,19.63
2018-11-06T18:45:23.949Z,21.17
2018-11-06T18:47:54.392Z,24.07
2018-11-06T18:50:23.282Z,22.17
2018-11-06T18:52:52.358Z,23.93
2018-11-06T18:55:21.327Z,29.73
2018-11-06T18:57:50.330Z,29.33
2018-11-06T19:00:20.394Z,30.37
2018-11-06T19:02:50.737Z,26.93
2018-11-06T19:05:20.562Z,28.60
2018-11-06T19:07:49.592Z,26.27
2018-11-06T19:10:18.913Z,29.80
2018-11-06T19:12:47.868Z,28.40
2018-11-06T19:15:18.112Z,28.23
2018-11-06T19:17:48.434Z,26.60
2018-11-06T19:20:17.593Z,27.43
2018-11-06T19:22:46.970Z,26.23
2018-11-06T19:25:16.251Z,27.90
2018-11-06T19:27:45.340Z,27.87
2018-11-06T19:30:17.216Z,25.47
2018-11-06T19:32:46.138Z,27.17
2018-11-06T19:35:15.043Z,26.83
2018-11-06T19:37:44.086Z,27.13
2018-11-06T19:40:14.514Z,24.33
2018-11-06T19:42:44.449Z,24.63
2018-11-06T19:45:13.880Z,23.60
2018-11-06T19:47:42.779Z,33.17
2018-11-06T19:50:13.746Z,31.77
2018-11-06T19:52:42.560Z,32.33
2018-11-06T19:55:12.815Z,32.50
2018-11-06T19:57:41.789Z,33.60
2018-11-06T20:00:15.146Z,35.60
2018-11-06T20:02:45.518Z,32.70
2018-11-06T20:05:14.528Z,34.30
2018-11-06T20:07:44.370Z,32.80
2018-11-06T20:10:14.662Z,35.80
2018-11-06T20:12:44.691Z,34.27
2018-11-06T20:15:14.710Z,32.70
2018-11-06T20:17:44.319Z,31.53
2018-11-06T20:20:15.299Z,34.30
2018-11-06T20:22:44.814Z,32.53
2018-11-06T20:25:14.014Z,30.37
2018-11-06T20:27:43.515Z,31.37
2018-11-06T20:30:14.781Z,33.73
2018-11-06T20:32:43.724Z,32.93
2018-11-06T20:35:13.224Z,31.77
2018-11-06T20:37:42.331Z,31.53
2018-11-06T20:40:13.540Z,31.90
2018-11-06T20:42:43.093Z,33.60
2018-11-06T20:45:14.541Z,31.37
2018-11-06T20:47:43.793Z,31.40
2018-11-06T20:50:16.002Z,29.40
2018-11-06T20:52:47.332Z,29.77
2018-11-06T20:55:17.121Z,31.10
2018-11-06T20:57:46.001Z,28.37
2018-11-06T21:00:21.057Z,29.77
2018-11-06T21:02:50.729Z,29.97
2018-11-06T21:05:19.695Z,28.83
2018-11-06T21:07:48.989Z,29.07
2018-11-06T21:10:20.466Z,27.07
2018-11-06T21:12:49.810Z,26.40
2018-11-06T21:15:20.272Z,27.80
2018-11-06T21:17:49.251Z,25.50
2018-11-06T21:20:18.645Z,24.40
2018-11-06T21:22:47.473Z,26.67
2018-11-06T21:25:16.559Z,26.87
2018-11-06T21:27:45.846Z,27.90
2018-11-06T21:30:16.571Z,25.67
2018-11-06T21:32:46.838Z,28.17
2018-11-06T21:35:15.842Z,27.00
2018-11-06T21:37:44.744Z,26.57
2018-11-06T21:40:15.476Z,27.20
2018-11-06T21:42:45.068Z,27.53
2018-11-06T21:45:14.579Z,29.77
2018-11-06T21:47:44.522Z,28.57
2018-11-06T21:50:14.405Z,28.83
2018-11-06T21:52:43.505Z,23.60
2018-11-06T21:55:14.684Z,24.77
2018-11-06T21:57:43.768Z,25.17
2018-11-06T22:00:15.785Z,25.63
2018-11-06T22:02:44.713Z,23.67
2018-11-06T22:05:14.964Z,24.07
2018-11-06T22:07:44.124Z,24.10
2018-11-06T22:10:14.275Z,21.63
2018-11-06T22:12:44.460Z,23.23
2018-11-06T22:15:14.468Z,21.40
2018-11-06T22:17:43.327Z,20.97
2018-11-06T22:20:13.835Z,20.50
2018-11-06T22:22:43.699Z,21.07
2018-11-06T22:25:12.740Z,20.23
2018-11-06T22:27:41.861Z,22.70
2018-11-06T22:30:12.364Z,19.97
2018-11-06T22:32:42.070Z,21.20
2018-11-06T22:35:12.419Z,20.40
2018-11-06T22:37:41.458Z,21.27
2018-11-06T22:40:11.770Z,21.03
2018-11-06T22:42:41.018Z,21.33
2018-11-06T22:45:11.942Z,22.50
2018-11-06T22:47:41.009Z,22.47
2018-11-06T22:50:12.216Z,22.97
2018-11-06T22:52:41.496Z,20.57
2018-11-06T22:55:10.478Z,20.03
2018-11-06T22:57:39.461Z,19.07
2018-11-06T23:00:13.198Z,20.30
2018-11-06T23:02:42.583Z,19.50
2018-11-06T23:05:11.536Z,20.57
2018-11-06T23:07:45.638Z,20.03
2018-11-06T23:10:14.756Z,20.40
2018-11-06T23:12:43.942Z,20.53
2018-11-06T23:15:12.918Z,18.80
2018-11-06T23:17:42.078Z,19.80
2018-11-06T23:20:11.158Z,21.33
2018-11-06T23:22:40.387Z,19.50
2018-11-06T23:25:09.508Z,18.83
2018-11-06T23:27:38.449Z,21.03
2018-11-06T23:30:10.153Z,19.73
2018-11-06T23:32:39.064Z,20.00
2018-11-06T23:35:08.060Z,21.17
2018-11-06T23:37:37.396Z,19.23
2018-11-06T23:40:06.805Z,19.53
2018-11-06T23:42:35.808Z,18.13
2018-11-06T23:45:05.109Z,18.03
2018-11-06T23:47:34.148Z,18.87
2018-11-06T23:50:03.435Z,21.93
2018-11-06T23:52:32.478Z,20.33
2018-11-06T23:55:01.474Z,21.17
2018-11-06T23:57:30.808Z,22.67
